Time;durP1;ratioP1;P1;durP2;ratioP2;P2;SDS_P1;SDS_P2;PMS_P1;PMS_P2;Temp;Humidity;BMP_temperature;BMP_pressure;BME280_temperature;BME280_humidity;BME280_pressure;Samples;Min_cycle;Max_cycle;Signal;HPM_P1;HPM_P2
2021/04/06 00:01:46;;;;;;;20.15;12.50;;;;;;;4.99;53.82;99033.80;1787230;80;21465;-54
2021/04/06 00:04:22;;;;;;;18.65;12.37;;;;;;;4.99;53.85;99035.72;1787429;80;22288;-54
2021/04/06 00:07:04;;;;;;;19.00;13.08;;;;;;;4.98;53.94;99036.79;1787598;80;21067;-54
2021/04/06 00:12:19;;;;;;;19.40;12.47;;;;;;;5.03;54.03;99039.53;1771623;79;22657;-54
2021/04/06 00:14:47;;;;;;;20.82;14.07;;;;;;;4.97;54.25;99052.31;1734363;82;21046;-54
2021/04/06 00:17:15;;;;;;;18.15;12.78;;;;;;;4.98;54.19;99049.03;1689822;82;22842;-54
2021/04/06 00:19:46;;;;;;;21.77;14.23;;;;;;;4.98;54.31;99049.84;1733970;82;21074;-54
2021/04/06 00:22:18;;;;;;;22.07;14.40;;;;;;;4.97;54.33;99044.67;1733889;82;20987;-54
2021/04/06 00:24:54;;;;;;;18.80;13.90;;;;;;;4.94;54.45;99040.58;1713718;82;21031;-55
2021/04/06 00:27:49;;;;;;;17.77;12.65;;;;;;;4.92;54.52;99023.72;1733245;82;21640;-54
2021/04/06 00:30:31;;;;;;;22.13;13.85;;;;;;;4.91;54.67;99028.08;1713415;82;21361;-54
2021/04/06 00:33:06;;;;;;;21.97;13.72;;;;;;;4.89;54.73;99035.15;1733682;82;21038;-54
2021/04/06 00:35:36;;;;;;;18.48;13.48;;;;;;;4.85;54.93;99027.25;1734036;82;21315;-54
2021/04/06 00:38:13;;;;;;;20.32;13.15;;;;;;;4.82;55.02;99021.00;1734184;82;21030;-54
2021/04/06 00:40:48;;;;;;;21.52;13.95;;;;;;;4.79;55.28;99025.06;1733975;82;21054;-55
2021/04/06 00:43:19;;;;;;;24.23;14.93;;;;;;;4.77;55.28;99020.98;1734154;82;21374;-55
2021/04/06 00:45:52;;;;;;;18.77;13.53;;;;;;;4.74;55.52;99016.88;1733856;82;21066;-54
2021/04/06 00:48:20;;;;;;;20.37;14.38;;;;;;;4.74;55.46;99017.44;1663250;82;21643;-54
2021/04/06 00:51:16;;;;;;;18.30;14.13;;;;;;;4.73;55.59;99013.91;1713318;82;21049;-54
2021/04/06 00:54:06;;;;;;;19.20;13.65;;;;;;;4.71;55.67;99021.51;1724548;82;21030;-53
2021/04/06 00:56:43;;;;;;;17.30;13.80;;;;;;;4.70;55.82;99016.34;1704613;83;21320;-54
2021/04/06 00:59:18;;;;;;;24.25;14.55;;;;;;;4.67;55.89;99014.97;1704720;84;21043;-53
2021/04/06 01:02:01;;;;;;;18.92;13.38;;;;;;;4.65;55.98;99021.23;1704685;83;20995;-54
2021/04/06 01:04:39;;;;;;;21.77;13.72;;;;;;;4.68;56.07;99017.97;1839813;78;22658;-54
2021/04/06 01:07:13;;;;;;;18.85;14.10;;;;;;;4.61;56.13;99022.84;1814450;79;21449;-54
2021/04/06 01:09:56;;;;;;;20.65;14.47;;;;;;;4.59;56.23;99014.16;1814848;79;21278;-54
2021/04/06 01:12:29;;;;;;;25.72;14.73;;;;;;;4.57;56.40;99014.39;1782564;79;20994;-54
2021/04/06 01:15:06;;;;;;;20.17;14.25;;;;;;;4.57;56.34;99020.39;1814597;79;21021;-54
2021/04/06 01:17:34;;;;;;;22.55;15.18;;;;;;;4.56;56.41;99021.47;1781605;79;21029;-54
2021/04/06 01:20:15;;;;;;;19.70;14.47;;;;;;;4.57;56.48;99027.19;1753108;79;21611;-54
2021/04/06 01:22:51;;;;;;;19.35;14.25;;;;;;;4.55;56.55;99017.94;1814970;78;22219;-54
2021/04/06 01:25:30;;;;;;;19.27;13.85;;;;;;;4.54;56.57;99008.70;1814798;79;21297;-54
2021/04/06 01:28:10;;;;;;;16.67;13.65;;;;;;;4.52;56.58;99019.03;1814895;79;21611;-54
2021/04/06 01:30:46;;;;;;;23.42;13.60;;;;;;;4.49;56.67;99017.11;1815177;79;21045;-55
2021/04/06 01:33:31;;;;;;;20.75;14.00;;;;;;;4.47;56.77;99009.77;1814664;78;21069;-54
2021/04/06 01:36:08;;;;;;;20.00;14.15;;;;;;;4.47;56.85;99023.38;1814245;79;21770;-56
2021/04/06 01:38:40;;;;;;;20.15;14.63;;;;;;;4.45;56.99;99017.92;1814343;79;21065;-53
2021/04/06 01:41:08;;;;;;;21.68;14.68;;;;;;;4.44;57.05;99011.64;1814644;78;21010;-53
2021/04/06 01:43:50;;;;;;;22.15;16.10;;;;;;;4.42;57.11;99007.03;1815071;78;21009;-54
2021/04/06 01:46:38;;;;;;;23.75;16.30;;;;;;;4.41;57.25;99012.73;1815186;79;21592;-53
2021/04/06 01:48:59;;;;;;;20.60;15.23;;;;;;;4.37;57.37;99008.36;1813313;79;21203;-53
2021/04/06 01:51:34;;;;;;;22.20;15.08;;;;;;;4.35;57.47;99014.62;1814400;79;21029;-53
2021/04/06 01:54:08;;;;;;;20.02;14.13;;;;;;;4.32;57.64;99009.72;1801155;79;21053;-54
2021/04/06 01:56:52;;;;;;;22.22;16.02;;;;;;;4.32;57.77;99023.31;1780080;80;21016;-54
2021/04/06 01:59:31;;;;;;;21.75;15.05;;;;;;;4.30;57.75;99019.50;1782312;80;20986;-54
2021/04/06 02:01:58;;;;;;;22.37;15.95;;;;;;;4.29;57.91;99017.05;1782496;80;21389;-54
2021/04/06 02:04:41;;;;;;;19.80;14.95;;;;;;;4.27;58.00;99020.56;1773497;80;21655;-54
2021/04/06 02:07:11;;;;;;;24.82;16.45;;;;;;;4.26;58.04;99022.47;1772040;80;21581;-54
2021/04/06 02:09:39;;;;;;;31.23;14.78;;;;;;;4.24;58.12;99006.95;1748791;80;21144;-54
2021/04/06 02:12:10;;;;;;;20.65;15.03;;;;;;;4.24;58.28;99025.98;1771863;80;21006;-54
2021/04/06 02:14:40;;;;;;;20.55;14.75;;;;;;;4.23;58.28;99014.02;1769989;80;21160;-54
2021/04/06 02:17:10;;;;;;;22.55;15.10;;;;;;;4.23;58.22;99012.14;1771076;81;21037;-54
2021/04/06 02:19:43;;;;;;;21.30;15.40;;;;;;;4.23;58.20;99012.14;1771096;80;21026;-54
2021/04/06 02:22:14;;;;;;;20.20;15.50;;;;;;;4.24;58.26;99004.80;1770979;81;21651;-54
2021/04/06 02:24:52;;;;;;;24.50;13.70;;;;;;;4.24;58.19;99000.72;1771195;81;22216;-54
2021/04/06 02:27:24;;;;;;;21.35;16.57;;;;;;;4.23;58.22;98995.00;1764655;80;21359;-54
2021/04/06 02:29:58;;;;;;;26.37;14.98;;;;;;;4.23;58.24;98982.25;1771404;80;21050;-54
2021/04/06 02:32:36;;;;;;;23.18;14.40;;;;;;;4.21;58.25;98987.11;1771471;81;21073;-54
2021/04/06 02:35:11;;;;;;;19.05;15.20;;;;;;;4.19;58.32;99001.52;1770948;80;21053;-55
2021/04/06 02:37:44;;;;;;;22.05;15.00;;;;;;;4.20;58.32;98993.66;1771395;80;21030;-54
2021/04/06 02:40:16;;;;;;;19.30;14.58;;;;;;;4.21;58.22;98995.82;1771397;81;21444;-54
2021/04/06 02:42:48;;;;;;;21.62;15.93;;;;;;;4.21;58.26;98998.53;1770957;80;21050;-55
2021/04/06 02:45:23;;;;;;;22.90;16.10;;;;;;;4.24;58.20;99004.80;1771098;81;21026;-54
2021/04/06 02:48:12;;;;;;;25.10;14.38;;;;;;;4.25;58.13;99004.53;1771108;81;21378;-54
2021/04/06 02:50:43;;;;;;;22.70;15.88;;;;;;;4.26;58.16;98996.66;1771342;81;21034;-54
2021/04/06 02:53:16;;;;;;;21.48;14.75;;;;;;;4.25;58.17;99004.53;1771447;79;21355;-54
2021/04/06 02:55:44;;;;;;;22.25;15.75;;;;;;;4.26;58.10;98999.92;1771397;81;21026;-54
2021/04/06 02:58:15;;;;;;;20.72;15.55;;;;;;;4.27;58.04;98995.58;1771532;80;21096;-55
2021/04/06 03:00:45;;;;;;;24.92;15.48;;;;;;;4.29;57.94;98998.03;1771467;80;21049;-54
2021/04/06 03:03:28;;;;;;;23.00;16.75;;;;;;;4.31;57.88;98994.48;1770962;80;21062;-54
2021/04/06 03:06:01;;;;;;;22.42;16.67;;;;;;;4.32;57.71;98992.86;1770324;80;21457;-54
2021/04/06 03:08:35;;;;;;;21.55;15.35;;;;;;;4.35;57.68;98983.36;1770890;81;21037;-54
2021/04/06 03:11:06;;;;;;;19.70;15.98;;;;;;;4.36;57.63;98987.72;1770767;80;21044;-54
2021/04/06 03:13:44;;;;;;;19.67;15.40;;;;;;;4.35;57.61;98984.72;1771381;81;20986;-55
2021/04/06 03:16:15;;;;;;;22.90;14.53;;;;;;;4.37;57.54;98989.33;1767843;80;21045;-54
2021/04/06 03:18:51;;;;;;;19.82;14.68;;;;;;;4.38;57.47;98991.53;1695828;81;21026;-54
2021/04/06 03:21:18;;;;;;;22.87;15.55;;;;;;;4.39;57.49;99008.93;1770538;80;21050;-54
2021/04/06 03:23:52;;;;;;;26.70;16.50;;;;;;;4.38;57.41;99014.08;1771270;80;21066;-55
2021/04/06 03:26:27;;;;;;;35.80;18.00;;;;;;;4.41;57.37;99011.38;1749028;81;21058;-54
2021/04/06 03:29:00;;;;;;;26.75;16.25;;;;;;;4.42;57.26;99016.55;1748814;81;21026;-55
2021/04/06 03:31:34;;;;;;;22.70;15.18;;;;;;;4.43;57.27;99014.11;1771190;81;21620;-54
2021/04/06 03:36:44;;;;;;;22.65;15.90;;;;;;;4.48;57.28;99005.95;1773820;79;23125;-54
2021/04/06 03:39:12;;;;;;;23.38;16.87;;;;;;;4.42;57.25;99013.83;1746966;82;21050;-54
2021/04/06 03:41:47;;;;;;;24.27;15.78;;;;;;;4.43;57.18;99019.55;1718469;82;21214;-54
2021/04/06 03:44:14;;;;;;;21.77;15.48;;;;;;;4.46;57.17;99008.13;1747224;81;21742;-54
2021/04/06 03:46:49;;;;;;;21.70;15.10;;;;;;;4.47;57.04;99002.98;1746536;81;21670;-54
2021/04/06 03:49:26;;;;;;;24.75;15.83;;;;;;;4.50;57.01;99015.20;1745654;82;20998;-54
2021/04/06 03:52:02;;;;;;;23.77;15.35;;;;;;;4.51;56.95;99005.96;1746631;82;21069;-54
2021/04/06 03:54:48;;;;;;;33.83;17.02;;;;;;;4.54;56.96;99012.77;1726643;82;21391;-53
2021/04/06 04:00:10;;;;;;;25.65;15.23;;;;;;;4.57;56.80;99009.52;1717775;83;20951;-53
2021/04/06 04:02:40;;;;;;;25.60;15.00;;;;;;;4.58;56.75;99005.16;1717268;83;21057;-53
2021/04/06 04:05:10;;;;;;;23.35;15.00;;;;;;;4.60;56.71;99008.97;1717104;83;21034;-54
2021/04/06 04:07:41;;;;;;;26.97;15.13;;;;;;;4.62;56.60;99019.05;1717306;83;21203;-53
2021/04/06 04:10:12;;;;;;;23.27;14.78;;;;;;;4.64;56.56;99011.43;1716991;83;21057;-53
2021/04/06 04:12:43;;;;;;;38.53;16.62;;;;;;;4.66;56.42;99002.48;1717228;83;21038;-53
2021/04/06 04:15:15;;;;;;;24.67;16.02;;;;;;;4.68;56.48;98994.85;1716831;83;21057;-54
2021/04/06 04:17:51;;;;;;;25.97;14.47;;;;;;;4.71;56.37;99005.73;1717086;83;20990;-54
2021/04/06 04:20:22;;;;;;;22.73;15.55;;;;;;;4.72;56.33;99005.47;1717521;83;21141;-54
2021/04/06 04:22:53;;;;;;;22.62;14.78;;;;;;;4.76;56.15;99009.81;1717387;83;20998;-54
2021/04/06 04:25:25;;;;;;;16.67;13.78;;;;;;;4.79;56.04;99010.66;1717624;83;21002;-54
2021/04/06 04:27:50;;;;;;;21.62;14.83;;;;;;;4.82;56.00;99021.00;1717279;83;21038;-55
2021/04/06 04:46:20;;;;;;;30.02;15.90;;;;;;;5.08;55.45;99025.91;1887476;76;22493;-54
2021/04/06 04:48:58;;;;;;;25.60;16.70;;;;;;;5.00;55.41;99021.83;1858614;77;22122;-55
2021/04/06 04:51:27;;;;;;;21.40;15.23;;;;;;;5.00;55.40;99021.00;1820635;78;21195;-55
2021/04/06 04:53:56;;;;;;;23.22;16.23;;;;;;;4.99;55.37;99022.11;1803597;78;21713;-55
2021/04/06 04:56:26;;;;;;;24.72;15.53;;;;;;;5.02;55.25;99025.64;1754946;81;21019;-55
2021/04/06 04:58:56;;;;;;;29.12;17.35;;;;;;;5.05;55.16;99029.17;1788155;80;21052;-55
2021/04/06 05:01:26;;;;;;;30.80;16.42;;;;;;;5.07;55.14;99022.91;1788162;80;21442;-55
2021/04/06 05:03:55;;;;;;;23.45;15.58;;;;;;;5.10;54.98;99034.64;1788465;80;21402;-55
2021/04/06 05:06:25;;;;;;;24.60;17.20;;;;;;;5.12;55.00;99040.61;1788294;80;21055;-55
2021/04/06 05:08:58;;;;;;;25.80;17.87;;;;;;;5.15;55.00;99037.34;1788066;80;21046;-54
2021/04/06 05:11:26;;;;;;;28.52;17.82;;;;;;;5.17;54.92;99044.70;1788353;80;21712;-54
2021/04/06 05:13:53;;;;;;;30.48;18.62;;;;;;;5.20;54.78;99043.33;1788234;80;21045;-54
2021/04/06 05:16:21;;;;;;;26.68;18.17;;;;;;;5.26;54.86;99040.06;1788215;80;21906;-54
2021/04/06 05:18:54;;;;;;;29.20;17.25;;;;;;;5.33;54.56;99033.27;1788045;80;21649;-54
2021/04/06 05:21:23;;;;;;;29.32;16.05;;;;;;;5.37;54.57;99029.44;1787894;80;21070;-54
2021/04/06 05:23:54;;;;;;;26.65;17.23;;;;;;;5.45;54.56;99036.27;1787899;80;21066;-54
2021/04/06 05:26:23;;;;;;;29.48;18.92;;;;;;;5.51;54.16;99029.71;1788533;80;21732;-55
2021/04/06 05:28:50;;;;;;;34.70;18.23;;;;;;;5.59;53.97;99033.77;1788091;80;21213;-54
2021/04/06 05:31:21;;;;;;;31.20;18.17;;;;;;;5.63;53.85;99026.69;1788142;80;21633;-54
2021/04/06 05:33:55;;;;;;;29.63;18.90;;;;;;;5.71;53.74;99031.59;1788002;80;21759;-54
2021/04/06 05:36:27;;;;;;;38.17;18.05;;;;;;;5.79;53.45;99022.86;1787684;80;21073;-55
2021/04/06 05:39:02;;;;;;;24.90;17.25;;;;;;;5.89;53.08;99024.19;1788067;80;21004;-54
2021/04/06 05:41:36;;;;;;;33.48;17.42;;;;;;;5.98;52.89;99029.11;1787543;80;21681;-54
2021/04/06 05:44:05;;;;;;;24.50;17.12;;;;;;;6.09;52.70;99036.70;1788089;80;21966;-54
2021/04/06 05:46:37;;;;;;;25.88;15.95;;;;;;;6.18;52.21;99033.13;1787901;79;21078;-54
2021/04/06 05:49:23;;;;;;;23.27;16.10;;;;;;;6.26;51.99;99036.36;1788150;80;21212;-54
2021/04/06 05:51:56;;;;;;;23.65;16.35;;;;;;;6.38;51.84;99036.87;1788126;80;21161;-54
2021/04/06 05:54:26;;;;;;;25.88;17.02;;;;;;;6.49;51.51;99031.63;1788387;80;21361;-54
2021/04/06 05:56:56;;;;;;;30.08;16.87;;;;;;;6.61;51.12;99025.84;1787607;80;21058;-55
2021/04/06 05:59:27;;;;;;;33.70;17.55;;;;;;;6.74;50.79;99018.41;1787392;80;21043;-54
2021/04/06 06:01:57;;;;;;;28.73;16.62;;;;;;;6.89;50.66;99031.13;1787312;80;21019;-54
2021/04/06 06:04:26;;;;;;;27.27;17.60;;;;;;;7.04;50.22;99025.30;1787217;80;21248;-55
2021/04/06 06:06:58;;;;;;;28.27;15.93;;;;;;;7.18;49.77;99027.64;1787459;80;21474;-55
2021/04/06 06:09:35;;;;;;;31.20;17.57;;;;;;;7.32;49.38;99036.57;1787374;80;21035;-55
2021/04/06 06:12:12;;;;;;;25.60;17.32;;;;;;;7.42;49.01;99041.37;1787296;80;21055;-55
2021/04/06 06:14:50;;;;;;;22.85;16.35;;;;;;;7.53;48.72;99039.38;1787425;80;20983;-55
2021/04/06 06:17:24;;;;;;;34.67;16.75;;;;;;;7.65;48.44;99031.36;1787495;80;21104;-55
2021/04/06 06:19:58;;;;;;;29.45;16.07;;;;;;;7.78;48.21;99038.87;1787421;80;21243;-55
2021/04/06 06:22:30;;;;;;;26.80;16.10;;;;;;;7.89;47.69;99032.76;1787345;80;20999;-55
2021/04/06 06:25:11;;;;;;;29.15;17.27;;;;;;;7.97;47.35;99032.09;1787487;80;20983;-55
2021/04/06 06:27:44;;;;;;;27.58;17.12;;;;;;;8.06;47.33;99039.11;1787494;80;21112;-54
2021/04/06 06:33:26;;;;;;;28.50;18.00;;;;;;;8.28;46.88;99035.30;1787600;80;21213;-54
2021/04/06 06:36:01;;;;;;;27.55;17.05;;;;;;;8.38;46.46;99049.97;1787721;80;21011;-54
2021/04/06 06:38:38;;;;;;;29.32;16.93;;;;;;;8.49;46.25;99056.98;1787385;80;21640;-54
2021/04/06 06:41:19;;;;;;;23.52;16.60;;;;;;;8.54;45.74;99054.16;1787484;80;21109;-54
2021/04/06 06:44:00;;;;;;;30.30;17.27;;;;;;;8.54;45.78;99065.67;1787202;80;21976;-54
2021/04/06 06:46:31;;;;;;;31.95;17.20;;;;;;;8.51;45.82;99062.96;1758145;79;21128;-54
2021/04/06 06:49:06;;;;;;;26.25;17.20;;;;;;;8.46;46.18;99067.95;1736450;82;21056;-54
2021/04/06 06:51:40;;;;;;;28.75;17.87;;;;;;;8.54;46.17;99067.04;1740834;82;21044;-55
2021/04/06 06:54:09;;;;;;;28.02;17.57;;;;;;;8.56;46.29;99060.17;1740904;81;21595;-55
2021/04/06 06:56:42;;;;;;;40.12;17.87;;;;;;;8.63;46.18;99063.36;1740425;82;21080;-54
2021/04/06 06:59:11;;;;;;;28.95;18.52;;;;;;;8.75;46.06;99077.17;1758708;80;21217;-54
2021/04/06 07:01:40;;;;;;;28.47;17.10;;;;;;;8.82;46.04;99077.63;1729701;80;21060;-54
2021/04/06 07:04:14;;;;;;;21.02;15.95;;;;;;;8.90;45.69;99064.66;1721727;80;21052;-54
2021/04/06 07:06:47;;;;;;;23.10;16.40;;;;;;;8.98;45.59;99072.18;1752318;80;20973;-54
2021/04/06 07:09:31;;;;;;;30.88;17.48;;;;;;;9.06;45.53;99067.98;1721413;80;21820;-54
2021/04/06 07:12:04;;;;;;;23.05;15.88;;;;;;;9.17;45.29;99068.63;1758505;80;21199;-55
2021/04/06 07:14:39;;;;;;;22.07;15.80;;;;;;;9.26;45.01;99061.38;1743815;80;21092;-55
2021/04/06 07:20:12;;;;;;;33.65;18.60;;;;;;;9.54;44.65;99053.23;1855752;75;28492;-54
2021/04/06 07:22:40;;;;;;;27.75;18.52;;;;;;;9.67;44.35;99054.39;1825919;76;21028;-55
2021/04/06 07:25:12;;;;;;;29.52;17.02;;;;;;;9.80;43.83;99067.88;1797069;78;21368;-54
2021/04/06 07:27:42;;;;;;;30.02;16.75;;;;;;;9.81;43.69;99062.08;1761356;79;21049;-55
2021/04/06 07:30:12;;;;;;;22.35;16.00;;;;;;;9.85;43.52;99067.80;1788790;78;21048;-56
2021/04/06 07:32:41;;;;;;;31.87;17.73;;;;;;;9.90;43.37;99067.69;1780203;78;21036;-55
2021/04/06 07:35:10;;;;;;;23.07;14.87;;;;;;;9.94;43.17;99059.68;1799895;78;21033;-55
2021/04/06 07:37:47;;;;;;;24.60;15.60;;;;;;;10.02;43.19;99065.28;1775877;80;21418;-54
2021/04/06 07:40:21;;;;;;;27.30;17.95;;;;;;;10.09;43.03;99070.38;1789477;78;21094;-55
2021/04/06 07:42:52;;;;;;;30.95;15.20;;;;;;;10.12;42.87;99064.84;1785225;78;21030;-55
2021/04/06 07:45:28;;;;;;;34.13;15.58;;;;;;;10.13;42.33;99067.82;1757731;79;21089;-53
2021/04/06 07:47:59;;;;;;;24.63;15.65;;;;;;;10.17;42.27;99066.09;1792084;78;21175;-55
2021/04/06 07:50:45;;;;;;;26.42;15.45;;;;;;;10.27;42.06;99067.27;1789799;78;21379;-56
2021/04/06 07:53:26;;;;;;;26.52;15.85;;;;;;;10.42;41.55;99073.59;1785276;78;21251;-56
2021/04/06 07:55:58;;;;;;;24.27;14.55;;;;;;;10.55;41.16;99063.98;1753647;79;21043;-55
2021/04/06 07:58:48;;;;;;;25.88;14.33;;;;;;;10.77;41.11;99067.12;1754663;80;21829;-56
2021/04/06 08:01:28;;;;;;;20.72;15.40;;;;;;;10.98;39.95;99061.42;1753420;79;21734;-56
2021/04/06 08:04:03;;;;;;;32.93;22.55;;;;;;;11.14;39.32;99065.20;1750727;79;21592;-56
2021/04/06 08:06:51;;;;;;;24.23;14.78;;;;;;;11.23;39.13;99064.16;1752369;80;21659;-55
2021/04/06 08:09:35;;;;;;;22.85;12.78;;;;;;;11.38;39.20;99067.08;1753641;80;21065;-55
2021/04/06 08:12:17;;;;;;;27.82;15.25;;;;;;;11.60;38.66;99073.70;1757971;79;21085;-55
2021/04/06 08:15:02;;;;;;;22.90;12.60;;;;;;;11.80;37.92;99078.45;1748152;80;21101;-55
2021/04/06 08:17:39;;;;;;;24.32;13.50;;;;;;;11.93;37.56;99077.02;1751794;80;21218;-56
2021/04/06 08:20:21;;;;;;;27.65;13.13;;;;;;;12.11;37.17;99072.98;1745511;80;21122;-55
2021/04/06 08:22:57;;;;;;;18.48;12.53;;;;;;;12.21;36.42;99073.27;1743455;80;21150;-55
2021/04/06 08:25:36;;;;;;;21.73;11.63;;;;;;;12.29;36.17;99072.50;1742667;80;21168;-55
2021/04/06 08:28:07;;;;;;;20.32;11.68;;;;;;;12.32;35.93;99071.86;1752043;80;21024;-58
2021/04/06 08:30:38;;;;;;;16.35;10.38;;;;;;;12.43;35.44;99073.20;1772479;79;21414;-56
2021/04/06 08:33:12;;;;;;;21.62;12.35;;;;;;;12.60;35.17;99068.86;1776913;79;21696;-55
2021/04/06 08:35:52;;;;;;;18.17;10.80;;;;;;;12.76;34.70;99059.56;1773494;80;21048;-56
2021/04/06 08:38:28;;;;;;;22.52;12.60;;;;;;;12.83;34.46;99061.86;1769800;78;21078;-56
2021/04/06 08:41:13;;;;;;;21.02;11.10;;;;;;;12.92;34.71;99062.13;1773944;80;21002;-57
2021/04/06 08:43:55;;;;;;;21.27;11.57;;;;;;;13.20;34.43;99070.66;1771623;79;21303;-54
2021/04/06 08:46:48;;;;;;;25.95;11.93;;;;;;;13.38;33.59;99066.78;1770297;79;21066;-56
2021/04/06 08:49:25;;;;;;;17.70;10.48;;;;;;;13.58;33.48;99062.55;1763950;79;21069;-54
2021/04/06 08:52:00;;;;;;;16.70;10.95;;;;;;;13.73;33.25;99062.62;1773737;79;21048;-56
2021/04/06 08:54:32;;;;;;;15.18;9.65;;;;;;;13.90;33.08;99058.17;1775681;79;21057;-55
2021/04/06 08:57:05;;;;;;;20.85;10.03;;;;;;;13.97;32.28;99062.63;1779839;79;21389;-54
2021/04/06 08:59:43;;;;;;;17.10;10.35;;;;;;;14.04;32.42;99054.64;1779468;79;21024;-54
2021/04/06 09:02:21;;;;;;;17.55;11.15;;;;;;;14.26;32.43;99055.53;1789505;78;21072;-56
2021/04/06 09:04:51;;;;;;;17.65;10.98;;;;;;;14.63;32.19;99051.17;1763705;80;21183;-58
2021/04/06 09:07:29;;;;;;;20.32;11.22;;;;;;;14.98;31.63;99045.39;1759327;80;21088;-58
2021/04/06 09:10:02;;;;;;;19.05;11.05;;;;;;;15.12;30.95;99045.69;1758105;80;21230;-57
2021/04/06 09:12:32;;;;;;;16.70;10.93;;;;;;;15.11;30.87;99042.13;1759247;80;21207;-58
2021/04/06 09:15:00;;;;;;;14.83;10.50;;;;;;;15.08;31.22;99042.80;1750247;80;21039;-56
2021/04/06 09:17:31;;;;;;;12.53;8.53;;;;;;;15.28;30.68;99043.94;1755842;80;21188;-54
2021/04/06 09:20:08;;;;;;;18.12;9.85;;;;;;;15.37;29.86;99048.01;1753176;80;21096;-59
2021/04/06 09:22:50;;;;;;;17.42;9.55;;;;;;;15.24;29.60;99045.76;1760886;80;21268;-58
2021/04/06 09:25:26;;;;;;;24.70;15.03;;;;;;;15.21;29.75;99024.31;1754116;80;21208;-56
2021/04/06 09:28:03;;;;;;;13.45;9.18;;;;;;;15.31;29.96;99030.81;1746246;79;21081;-57
2021/04/06 09:30:35;;;;;;;12.58;8.03;;;;;;;15.48;29.21;99042.29;1750102;80;21631;-58
2021/04/06 09:33:08;;;;;;;14.73;8.70;;;;;;;15.45;29.23;99037.44;1750599;79;21813;-59
2021/04/06 09:35:39;;;;;;;16.35;9.88;;;;;;;15.44;29.33;99040.55;1763504;80;22116;-56
2021/04/06 09:38:07;;;;;;;16.82;9.25;;;;;;;15.35;29.65;99028.19;1765183;80;21077;-57
2021/04/06 09:40:38;;;;;;;12.85;8.43;;;;;;;15.52;29.62;99016.95;1755288;79;21040;-55
2021/04/06 09:43:09;;;;;;;23.20;8.78;;;;;;;15.81;29.90;99030.42;1766435;80;21719;-55
2021/04/06 09:45:38;;;;;;;16.27;8.38;;;;;;;16.03;28.81;99039.46;1736205;80;21034;-56
2021/04/06 09:48:14;;;;;;;17.12;8.50;;;;;;;15.85;28.90;99029.98;1754381;80;21371;-55
2021/04/06 09:51:04;;;;;;;19.57;8.25;;;;;;;15.70;28.76;99045.27;1756641;80;21170;-56
2021/04/06 09:53:36;;;;;;;10.43;7.83;;;;;;;15.53;28.88;99032.41;1751522;79;21072;-59
2021/04/06 09:56:11;;;;;;;;;;;;;;;15.76;28.88;99030.63;1771008;80;21085;-58
2021/04/06 09:58:42;;;;;;;11.57;8.78;;;;;;;15.87;28.72;99026.86;1759547;80;20204;-57
2021/04/06 10:01:23;;;;;;;15.20;8.95;;;;;;;15.96;29.17;99023.44;1752187;80;21298;-59
2021/04/06 10:03:57;;;;;;;14.85;8.78;;;;;;;16.16;29.01;99023.11;1766143;80;21089;-56
2021/04/06 10:06:40;;;;;;;18.00;8.63;;;;;;;16.30;28.55;99021.36;1748276;79;21487;-59
2021/04/06 10:09:26;;;;;;;20.52;9.43;;;;;;;16.36;28.72;99018.61;1736646;80;21025;-57
2021/04/06 10:11:57;;;;;;;25.43;10.43;;;;;;;16.43;28.41;99010.29;1758074;80;21682;-54
2021/04/06 10:14:25;;;;;;;15.20;8.60;;;;;;;16.77;28.46;99015.90;1755622;79;21225;-56
2021/04/06 10:17:06;;;;;;;12.78;7.37;;;;;;;17.08;28.07;99020.82;1743665;79;21172;-55
2021/04/06 10:19:39;;;;;;;11.63;7.08;;;;;;;17.16;26.96;99012.14;1745366;80;21199;-54
2021/04/06 10:22:13;;;;;;;10.95;7.22;;;;;;;17.08;26.95;99011.70;1754336;80;21113;-55
2021/04/06 10:24:44;;;;;;;17.92;10.60;;;;;;;17.19;26.72;99006.45;1753644;80;21363;-56
2021/04/06 10:27:27;;;;;;;16.25;8.65;;;;;;;17.14;26.73;99003.35;1758712;79;22081;-56
2021/04/06 10:29:57;;;;;;;9.58;7.20;;;;;;;17.01;26.90;99001.79;1756087;79;21053;-56
2021/04/06 10:32:30;;;;;;;10.15;7.67;;;;;;;16.86;27.13;99008.83;1760226;80;21064;-55
2021/04/06 10:35:14;;;;;;;11.55;7.37;;;;;;;16.62;27.12;99002.75;1753039;79;21085;-56
2021/04/06 10:37:53;;;;;;;13.35;8.13;;;;;;;16.52;27.51;99000.70;1758242;79;21048;-56
2021/04/06 10:40:38;;;;;;;13.28;8.60;;;;;;;16.50;27.61;99000.22;1764489;80;21367;-55
2021/04/06 10:43:13;;;;;;;13.22;7.20;;;;;;;16.53;27.69;98991.23;1759680;80;21672;-56
2021/04/06 10:45:51;;;;;;;17.10;7.85;;;;;;;16.82;27.42;98994.05;1762167;80;21046;-57
2021/04/06 10:48:24;;;;;;;;;;;;;;;17.18;27.14;98988.21;1763725;79;21084;-56
2021/04/06 10:51:09;;;;;;;14.65;7.72;;;;;;;17.68;26.87;98997.11;1751735;80;20319;-57
2021/04/06 10:53:41;;;;;;;9.65;7.40;;;;;;;18.25;25.74;98986.07;1744727;79;22263;-55
2021/04/06 10:56:16;;;;;;;18.98;8.80;;;;;;;18.40;25.38;98987.20;1752092;79;21091;-56
2021/04/06 10:58:53;;;;;;;12.25;8.23;;;;;;;18.00;25.52;99005.48;1761656;80;21188;-55
2021/04/06 11:01:30;;;;;;;12.65;7.85;;;;;;;17.49;25.77;98990.27;1754268;79;21383;-56
2021/04/06 11:03:59;;;;;;;9.45;7.12;;;;;;;17.52;25.94;98998.44;1753162;80;21678;-57
2021/04/06 11:06:35;;;;;;;12.53;6.60;;;;;;;17.94;25.87;98983.52;1757360;80;21397;-56
2021/04/06 11:09:23;;;;;;;10.45;7.80;;;;;;;18.22;25.79;98977.07;1756672;80;21029;-55
2021/04/06 11:11:54;;;;;;;11.78;8.40;;;;;;;18.19;25.69;98972.23;1764846;79;21025;-55
2021/04/06 11:14:25;;;;;;;26.80;9.08;;;;;;;18.04;25.52;98972.45;1763456;80;21679;-56
2021/04/06 11:16:55;;;;;;;15.00;7.47;;;;;;;17.81;26.21;98976.42;1757494;80;21131;-56
2021/04/06 11:19:30;;;;;;;12.65;7.80;;;;;;;17.85;25.56;98982.05;1761305;80;21401;-55
2021/04/06 11:22:11;;;;;;;14.55;7.17;;;;;;;17.90;25.38;98979.84;1754864;80;21250;-58
2021/04/06 11:24:41;;;;;;;13.20;7.85;;;;;;;17.94;25.64;98978.55;1745509;79;21059;-57
2021/04/06 11:27:17;;;;;;;13.58;7.30;;;;;;;17.85;25.79;98975.11;1780696;80;21044;-55
2021/04/06 11:29:48;;;;;;;10.35;6.12;;;;;;;17.64;25.91;98972.60;1776681;79;21074;-56
2021/04/06 11:32:30;;;;;;;15.38;7.72;;;;;;;17.25;26.21;98970.38;1809012;78;24056;-56
2021/04/06 11:34:57;;;;;;;11.12;9.45;;;;;;;16.76;26.73;98974.91;1782210;79;21053;-55
2021/04/06 11:37:26;;;;;;;12.73;8.25;;;;;;;16.33;27.34;98971.38;1783291;79;21259;-55
2021/04/06 11:39:54;;;;;;;13.00;9.20;;;;;;;15.88;28.09;98971.14;1784159;79;21047;-55
2021/04/06 11:42:29;;;;;;;13.65;8.13;;;;;;;15.57;28.28;98966.69;1781058;78;21629;-55
2021/04/06 11:45:00;;;;;;;13.05;10.35;;;;;;;15.37;28.78;98967.78;1781590;79;21061;-56
2021/04/06 11:47:35;;;;;;;15.10;9.60;;;;;;;15.25;28.95;98966.38;1782833;78;21018;-57
2021/04/06 11:50:06;;;;;;;17.45;10.65;;;;;;;15.06;29.21;98956.63;1781415;78;21348;-55
2021/04/06 11:52:35;;;;;;;23.80;14.07;;;;;;;15.04;29.43;98965.82;1784664;79;21704;-55
2021/04/06 11:55:04;;;;;;;19.98;14.60;;;;;;;15.02;29.17;98957.87;1786213;79;21167;-54
2021/04/06 11:57:34;;;;;;;16.87;9.63;;;;;;;14.98;29.42;98949.22;1752684;79;21033;-54
2021/04/06 12:00:07;;;;;;;15.70;9.18;;;;;;;14.96;29.51;98954.26;1781897;79;21684;-54
2021/04/06 12:02:40;;;;;;;15.80;9.43;;;;;;;14.98;29.43;98950.59;1784345;79;21383;-56
2021/04/06 12:05:10;;;;;;;14.58;8.28;;;;;;;14.91;29.38;98944.81;1782045;79;21054;-55
2021/04/06 12:07:41;;;;;;;16.15;8.88;;;;;;;14.82;29.57;98946.27;1782440;79;21995;-55
2021/04/06 12:10:15;;;;;;;11.28;8.65;;;;;;;14.73;29.89;98938.02;1784391;78;21006;-56
2021/04/06 12:12:43;;;;;;;17.48;9.15;;;;;;;14.67;29.83;98947.12;1782916;78;21063;-55
2021/04/06 12:15:18;;;;;;;14.75;8.00;;;;;;;14.56;29.95;98943.66;1782734;78;21038;-58
2021/04/06 12:17:48;;;;;;;16.23;9.55;;;;;;;14.49;30.03;98940.87;1784772;78;21114;-56
2021/04/06 12:20:17;;;;;;;17.42;8.40;;;;;;;14.45;30.12;98935.77;1760352;79;21143;-56
2021/04/06 12:22:45;;;;;;;24.75;11.10;;;;;;;14.48;30.28;98936.48;1783140;78;21025;-55
2021/04/06 12:25:14;;;;;;;16.40;10.45;;;;;;;14.71;30.74;98939.53;1784740;78;20990;-56
2021/04/06 12:27:45;;;;;;;21.57;11.28;;;;;;;14.91;31.52;98932.38;1784215;79;21205;-57